createdAt,value
2018-07-20T06:34:18.807Z,6.70
2018-07-20T06:35:19.492Z,6.20
2018-07-20T06:36:20.147Z,6.80
2018-07-20T06:37:20.958Z,6.50
2018-07-20T06:38:26.579Z,6.30
2018-07-20T06:39:34.009Z,6.00
2018-07-20T06:40:34.834Z,6.00
2018-07-20T06:41:35.971Z,5.80
2018-07-20T06:42:36.788Z,5.80
2018-07-20T06:43:38.137Z,5.60
2018-07-20T06:44:39.617Z,5.60
2018-07-20T06:45:40.285Z,5.60
2018-07-20T06:46:42.749Z,5.30
2018-07-20T06:47:43.532Z,5.70
2018-07-20T06:48:44.186Z,5.40
2018-07-20T06:49:44.875Z,5.20
2018-07-20T06:50:45.590Z,5.40
2018-07-20T06:51:46.263Z,5.30
2018-07-20T06:52:47.027Z,5.10
2018-07-20T06:53:47.755Z,5.20
2018-07-20T06:54:48.412Z,5.20
2018-07-20T06:55:49.155Z,4.90
2018-07-20T06:56:49.874Z,4.90
2018-07-20T06:57:50.565Z,4.70
2018-07-20T06:58:51.267Z,4.60
2018-07-20T06:59:52.055Z,4.70
2018-07-20T07:00:52.740Z,4.40
2018-07-20T07:01:53.396Z,4.30
2018-07-20T07:02:54.203Z,4.40
2018-07-20T07:03:55.900Z,4.00
2018-07-20T07:04:56.890Z,5.00
2018-07-20T07:05:57.819Z,4.30
2018-07-20T07:06:58.576Z,4.20
2018-07-20T07:07:59.440Z,4.20
2018-07-20T07:09:00.159Z,4.10
2018-07-20T07:10:00.878Z,4.00
2018-07-20T07:11:01.583Z,3.90
2018-07-20T07:12:02.231Z,4.30
2018-07-20T07:13:02.915Z,4.00
2018-07-20T07:14:03.653Z,4.10
2018-07-20T07:15:06.805Z,4.10
2018-07-20T07:16:07.590Z,4.00
2018-07-20T07:17:09.131Z,4.50
2018-07-20T07:45:38.470Z,3.90
2018-07-20T07:46:39.116Z,4.40
2018-07-20T07:47:39.939Z,4.40
2018-07-20T07:48:40.622Z,3.90
2018-07-20T07:49:41.299Z,4.20
2018-07-20T07:50:41.981Z,4.10
2018-07-20T07:51:42.650Z,4.00
2018-07-20T07:52:43.484Z,4.10
2018-07-20T07:53:44.171Z,4.10
2018-07-20T07:54:44.891Z,4.20
2018-07-20T07:55:45.650Z,4.50
2018-07-20T07:56:46.371Z,4.30
2018-07-20T07:57:47.077Z,4.10
2018-07-20T07:58:47.753Z,4.10
2018-07-20T07:59:48.458Z,3.80
2018-07-20T08:00:50.814Z,3.90
2018-07-20T08:01:51.545Z,3.90
2018-07-20T08:02:52.215Z,3.80
2018-07-20T08:03:52.882Z,3.60
2018-07-20T08:04:53.537Z,3.80
2018-07-20T08:05:54.268Z,3.60
2018-07-20T08:06:54.929Z,3.90
2018-07-20T08:07:55.568Z,3.80
2018-07-20T08:08:56.253Z,3.90
2018-07-20T08:09:56.964Z,4.00
2018-07-20T08:10:58.792Z,3.70
2018-07-20T08:11:59.490Z,3.50
2018-07-20T08:13:00.172Z,3.70
2018-07-20T08:14:00.829Z,3.80
2018-07-20T08:15:01.539Z,3.60
2018-07-20T08:16:02.335Z,3.40
2018-07-20T08:18:03.393Z,3.60
2018-07-20T08:19:04.652Z,3.50
2018-07-20T08:20:05.348Z,3.40
2018-07-20T08:21:06.022Z,3.60
2018-07-20T08:22:06.668Z,3.90
2018-07-20T08:23:07.383Z,4.00
2018-07-20T08:54:13.333Z,3.70
2018-07-20T08:55:14.132Z,3.80
2018-07-20T08:56:14.781Z,3.50
2018-07-20T08:57:15.452Z,3.60
2018-07-20T08:58:16.084Z,3.40
2018-07-20T08:59:16.785Z,3.70
2018-07-20T09:00:17.853Z,3.50
2018-07-20T09:01:18.534Z,3.50
2018-07-20T09:02:19.168Z,3.80
2018-07-20T09:03:19.818Z,3.20
2018-07-20T09:04:20.507Z,3.30
2018-07-20T09:05:21.151Z,3.40
2018-07-20T09:06:21.837Z,3.50
2018-07-20T09:07:22.510Z,3.60
2018-07-20T09:08:24.419Z,3.40
2018-07-20T09:09:33.261Z,3.20
2018-07-20T09:10:34.020Z,3.40
2018-07-20T09:11:34.770Z,3.20
2018-07-20T09:12:35.453Z,3.40
2018-07-20T09:13:36.146Z,3.30
2018-07-20T09:14:36.848Z,3.30
2018-07-20T09:15:37.487Z,3.50
2018-07-20T09:16:38.167Z,3.40
2018-07-20T09:17:38.825Z,3.10
2018-07-20T09:18:39.565Z,3.00
2018-07-20T09:19:40.276Z,3.10
2018-07-20T09:20:40.992Z,3.20
2018-07-20T09:21:41.666Z,2.90
2018-07-20T09:22:42.442Z,3.10
2018-07-20T09:23:43.232Z,3.20
2018-07-20T09:24:43.882Z,3.20
2018-07-20T09:25:44.558Z,3.20
2018-07-20T09:26:45.254Z,3.30
2018-07-20T09:27:45.919Z,3.30
2018-07-20T09:28:47.091Z,3.00
2018-07-20T09:29:47.769Z,3.30
2018-07-20T09:30:48.502Z,3.20
2018-07-20T09:31:49.210Z,3.40
2018-07-20T09:32:49.882Z,3.50
2018-07-20T09:33:52.551Z,3.40
2018-07-20T09:34:53.463Z,3.40
2018-07-20T09:35:54.130Z,3.40
2018-07-20T09:36:54.827Z,3.40
2018-07-20T09:37:55.589Z,3.30
2018-07-20T09:38:56.241Z,3.40
2018-07-20T09:39:56.924Z,3.60
2018-07-20T09:40:59.721Z,3.50
2018-07-20T09:42:01.006Z,3.40
2018-07-20T09:43:18.672Z,3.40
2018-07-20T09:44:19.348Z,3.40
2018-07-20T09:45:30.349Z,3.60
2018-07-20T09:46:32.112Z,3.50
2018-07-20T09:47:32.799Z,3.40
2018-07-20T09:48:33.506Z,3.80
2018-07-20T09:50:34.418Z,3.60
2018-07-20T09:51:35.083Z,3.30
2018-07-20T09:53:36.047Z,3.50
2018-07-20T09:54:36.879Z,3.80
2018-07-20T09:55:37.524Z,3.40
2018-07-20T09:56:38.176Z,3.80
2018-07-20T09:57:38.994Z,3.50
2018-07-20T09:58:39.699Z,3.50
2018-07-20T09:59:40.416Z,3.40
2018-07-20T10:00:46.342Z,3.50
2018-07-20T10:01:48.110Z,3.40
2018-07-20T10:02:48.761Z,3.50
2018-07-20T10:03:49.407Z,3.50
2018-07-20T10:04:50.084Z,3.30
2018-07-20T10:05:50.768Z,3.40
2018-07-20T10:06:51.447Z,3.40
2018-07-20T10:07:52.196Z,3.30
2018-07-20T10:08:52.867Z,3.50
2018-07-20T10:09:53.519Z,3.40
2018-07-20T10:10:54.216Z,3.50
2018-07-20T10:11:54.878Z,3.30
2018-07-20T10:12:55.558Z,3.50
2018-07-20T10:13:56.290Z,3.50
2018-07-20T10:14:56.948Z,3.70
2018-07-20T10:15:57.607Z,3.70
2018-07-20T10:17:58.519Z,3.80
2018-07-20T10:18:59.296Z,3.30
2018-07-20T10:20:00.688Z,3.50
2018-07-20T10:21:01.437Z,3.30
2018-07-20T10:22:03.926Z,3.60
2018-07-20T10:23:36.773Z,3.50
2018-07-20T10:24:37.456Z,3.70
2018-07-20T10:25:38.164Z,3.50
2018-07-20T10:26:38.935Z,3.60
2018-07-20T10:27:39.543Z,3.40
2018-07-20T10:28:40.227Z,3.50
2018-07-20T10:29:40.865Z,3.30
2018-07-20T10:30:41.592Z,3.60
2018-07-20T10:31:42.302Z,3.20
2018-07-20T10:32:42.922Z,3.90
2018-07-20T10:33:43.568Z,3.70
2018-07-20T10:34:44.224Z,3.40
2018-07-20T10:35:44.845Z,3.30
2018-07-20T10:36:45.557Z,3.40
2018-07-20T10:37:46.177Z,3.70
2018-07-20T10:38:48.182Z,3.20
2018-07-20T10:39:49.207Z,3.30
2018-07-20T10:40:50.192Z,3.30
2018-07-20T10:41:50.880Z,3.40
2018-07-20T10:42:51.556Z,3.40
2018-07-20T10:43:53.058Z,3.30
2018-07-20T10:44:53.698Z,3.30
2018-07-20T10:45:54.376Z,3.40
2018-07-20T10:46:55.209Z,3.30
2018-07-20T10:47:55.877Z,3.00
2018-07-20T10:48:57.314Z,3.40
2018-07-20T10:49:58.089Z,3.20
2018-07-20T10:50:58.829Z,3.20
2018-07-20T10:51:59.496Z,3.40
2018-07-20T10:53:00.208Z,3.40
2018-07-20T10:54:04.467Z,3.20
2018-07-20T10:55:06.432Z,3.00
2018-07-20T10:56:07.071Z,3.30
2018-07-20T10:57:07.769Z,3.40
2018-07-20T10:58:08.416Z,3.20
2018-07-20T10:59:09.089Z,3.00
2018-07-20T11:00:09.776Z,3.40
2018-07-20T11:01:10.414Z,3.30
2018-07-20T11:02:11.070Z,3.40
2018-07-20T11:03:17.613Z,3.50
2018-07-20T11:04:32.931Z,3.70
2018-07-20T11:05:33.981Z,3.60
2018-07-20T11:06:43.969Z,3.40
2018-07-20T11:07:48.177Z,3.10
2018-07-20T11:08:48.801Z,3.30
2018-07-20T11:09:49.449Z,3.30
2018-07-20T11:10:50.086Z,3.40
2018-07-20T11:11:50.776Z,3.20
2018-07-20T11:12:51.441Z,3.20
2018-07-20T11:13:55.809Z,3.30
2018-07-20T11:15:02.688Z,3.30
2018-07-20T11:16:18.861Z,3.60
2018-07-20T11:17:19.524Z,3.40
2018-07-20T11:18:20.325Z,3.20
2018-07-20T11:19:21.097Z,3.30
2018-07-20T11:20:37.808Z,3.60
2018-07-20T11:21:47.350Z,3.30
2018-07-20T11:22:48.087Z,3.10
2018-07-20T11:23:48.770Z,3.30
2018-07-20T11:24:49.487Z,3.70
2018-07-20T11:25:50.135Z,3.40
2018-07-20T11:26:51.193Z,3.40
2018-07-20T11:27:52.129Z,3.70
2018-07-20T11:28:52.807Z,3.60
2018-07-20T11:29:53.509Z,3.70
2018-07-20T11:30:54.744Z,3.30
2018-07-20T11:31:55.507Z,3.50
2018-07-20T11:32:56.937Z,3.50
2018-07-20T11:33:57.557Z,3.30
2018-07-20T11:34:58.223Z,3.50
2018-07-20T11:35:58.872Z,3.30
2018-07-20T11:36:59.497Z,3.30
2018-07-20T11:38:00.174Z,3.70
2018-07-20T11:39:00.842Z,3.30
2018-07-20T11:40:02.162Z,3.70
2018-07-20T11:41:02.859Z,3.40
2018-07-20T11:42:03.587Z,3.30
2018-07-20T11:43:04.291Z,3.50
2018-07-20T11:44:04.975Z,3.60
2018-07-20T11:45:05.647Z,3.50
2018-07-20T11:46:06.291Z,3.40
2018-07-20T11:47:06.930Z,3.60
2018-07-20T11:48:07.608Z,3.60
2018-07-20T11:49:08.265Z,3.50
2018-07-20T11:50:09.189Z,3.50
2018-07-20T11:51:10.024Z,3.70
2018-07-20T11:52:10.647Z,3.50
2018-07-20T11:53:11.584Z,3.50
2018-07-20T11:54:13.251Z,3.60
2018-07-20T11:55:14.245Z,3.50
2018-07-20T11:56:14.929Z,3.40
2018-07-20T11:57:18.731Z,3.40
2018-07-20T11:58:19.407Z,3.50
2018-07-20T11:59:20.048Z,3.40
2018-07-20T12:00:20.713Z,3.50
2018-07-20T12:01:24.744Z,3.40
2018-07-20T12:02:25.405Z,3.40
2018-07-20T12:03:26.937Z,3.20
2018-07-20T12:04:27.616Z,3.60
2018-07-20T12:05:28.251Z,3.40
2018-07-20T12:06:28.956Z,3.70
2018-07-20T12:07:29.585Z,3.40
2018-07-20T12:08:30.906Z,3.70
2018-07-20T12:09:31.565Z,3.50
2018-07-20T12:10:32.231Z,3.60
2018-07-20T12:11:40.574Z,3.70
2018-07-20T12:12:44.284Z,3.70
2018-07-20T12:13:44.973Z,3.40
2018-07-20T12:14:45.659Z,3.60
2018-07-20T12:15:46.532Z,3.50
2018-07-20T12:16:47.194Z,3.80
2018-07-20T12:17:55.586Z,3.70
2018-07-20T12:18:56.613Z,3.50
2018-07-20T12:19:57.332Z,3.70
2018-07-20T12:20:59.241Z,3.90
2018-07-20T12:22:00.985Z,3.50
2018-07-20T12:23:01.662Z,3.60
2018-07-20T12:24:05.256Z,3.30
2018-07-20T12:25:05.994Z,3.30
2018-07-20T12:26:08.176Z,3.40
2018-07-20T12:27:08.861Z,3.40
2018-07-20T12:28:09.602Z,3.70
2018-07-20T12:29:10.282Z,3.90
2018-07-20T12:30:10.966Z,3.60
2018-07-20T12:31:11.597Z,3.70
2018-07-20T12:32:12.245Z,3.90
2018-07-20T12:33:13.878Z,3.50
2018-07-20T12:34:14.518Z,3.70
2018-07-20T12:35:15.417Z,3.60
2018-07-20T12:36:16.271Z,3.50
2018-07-20T12:37:16.960Z,3.30
2018-07-20T12:38:17.726Z,3.50
2018-07-20T12:39:18.452Z,3.70
2018-07-20T12:40:21.194Z,3.70
2018-07-20T12:41:21.901Z,3.90
2018-07-20T12:42:22.614Z,3.60
2018-07-20T12:43:23.251Z,3.50
2018-07-20T12:44:23.915Z,3.80
2018-07-20T12:45:24.576Z,3.60
2018-07-20T12:46:25.357Z,3.60
2018-07-20T12:47:26.014Z,3.50
2018-07-20T12:48:26.715Z,3.30
2018-07-20T12:49:27.467Z,3.50
2018-07-20T12:50:28.150Z,3.70
2018-07-20T12:51:28.804Z,3.80
2018-07-20T12:52:29.443Z,3.60
2018-07-20T12:53:30.096Z,3.40
2018-07-20T12:54:36.193Z,3.80
2018-07-20T12:55:36.864Z,4.00
2018-07-20T12:56:37.520Z,3.70
2018-07-20T12:57:38.838Z,3.40
2018-07-20T12:58:39.566Z,3.80
2018-07-20T12:59:40.253Z,3.50
2018-07-20T13:00:41.025Z,4.00
2018-07-20T13:01:46.228Z,3.50
2018-07-20T13:02:47.123Z,3.80
2018-07-20T13:03:47.996Z,3.50
2018-07-20T13:04:51.784Z,3.60
2018-07-20T13:05:52.787Z,3.60
2018-07-20T13:06:53.906Z,3.50
2018-07-20T13:07:55.213Z,3.60
2018-07-20T13:08:59.746Z,4.00
2018-07-20T13:10:00.595Z,4.00
2018-07-20T13:11:01.356Z,3.90
2018-07-20T13:12:02.395Z,3.80
2018-07-20T13:13:03.308Z,3.90
2018-07-20T13:14:04.002Z,3.80
2018-07-20T13:15:04.642Z,3.60
2018-07-20T13:16:05.277Z,4.10
2018-07-20T13:17:08.662Z,3.90
2018-07-20T13:18:12.363Z,4.00
2018-07-20T13:19:13.012Z,4.00
2018-07-20T13:20:13.689Z,4.00
2018-07-20T13:21:14.351Z,3.80
2018-07-20T13:22:15.001Z,3.60
2018-07-20T13:23:15.676Z,4.20
2018-07-20T13:24:27.931Z,3.80
2018-07-20T13:25:33.177Z,3.50
2018-07-20T13:26:33.832Z,3.70
2018-07-20T13:27:34.595Z,3.80
2018-07-20T13:28:35.235Z,3.80
2018-07-20T13:29:35.917Z,3.90
2018-07-20T13:30:37.175Z,3.60
2018-07-20T13:31:37.892Z,4.40
2018-07-20T13:32:38.579Z,4.50
2018-07-20T13:33:39.267Z,3.60
2018-07-20T13:34:39.938Z,3.90
2018-07-20T13:35:40.662Z,3.80
2018-07-20T13:36:41.377Z,3.90
2018-07-20T13:37:42.059Z,3.80
2018-07-20T13:38:42.728Z,3.80
2018-07-20T13:39:43.417Z,3.40
2018-07-20T13:40:44.090Z,3.50
2018-07-20T13:41:44.738Z,3.70
2018-07-20T13:42:45.404Z,3.80
2018-07-20T13:43:46.058Z,3.90
2018-07-20T13:44:46.739Z,3.90
2018-07-20T13:45:49.667Z,3.60
2018-07-20T13:46:50.458Z,3.80
2018-07-20T13:47:51.121Z,3.70
2018-07-20T13:49:01.379Z,3.50
2018-07-20T13:50:04.759Z,3.60
2018-07-20T13:51:05.370Z,3.90
2018-07-20T13:52:06.401Z,3.80
2018-07-20T13:53:07.112Z,3.80
2018-07-20T13:54:07.839Z,3.80
2018-07-20T13:55:08.591Z,3.60
2018-07-20T13:56:09.238Z,3.60
2018-07-20T13:57:10.650Z,3.40
2018-07-20T13:58:14.942Z,3.30
2018-07-20T13:59:15.910Z,3.30
2018-07-20T14:00:16.576Z,3.50
2018-07-20T14:01:17.246Z,3.60
2018-07-20T14:02:19.194Z,3.70
2018-07-20T14:03:19.856Z,3.50
2018-07-20T14:04:20.524Z,3.80
2018-07-20T14:05:21.173Z,3.40
2018-07-20T14:06:21.827Z,3.40
2018-07-20T14:07:22.480Z,3.50
2018-07-20T14:08:23.138Z,3.40
2018-07-20T14:09:24.570Z,3.40
2018-07-20T14:10:25.261Z,3.50
2018-07-20T14:13:26.225Z,3.60
2018-07-20T14:14:26.954Z,3.50
2018-07-20T14:15:27.661Z,3.50
2018-07-20T14:16:28.339Z,3.40
2018-07-20T14:17:28.987Z,3.50
2018-07-20T14:18:29.667Z,3.40
2018-07-20T14:19:30.354Z,3.40
2018-07-20T14:20:31.046Z,3.40
2018-07-20T14:21:32.983Z,3.40
2018-07-20T14:22:33.841Z,3.90
2018-07-20T14:23:34.497Z,3.50
2018-07-20T14:24:36.177Z,3.60
2018-07-20T14:25:37.016Z,3.40
2018-07-20T14:26:37.722Z,3.70
2018-07-20T14:27:38.410Z,3.30
2018-07-20T14:29:39.605Z,3.50
2018-07-20T14:30:40.279Z,3.50
2018-07-20T14:31:40.973Z,3.80
2018-07-20T14:32:41.637Z,3.30
2018-07-20T14:33:42.295Z,3.30
2018-07-20T14:34:42.927Z,3.20
2018-07-20T14:35:43.664Z,3.30
2018-07-20T14:36:44.300Z,3.40
2018-07-20T14:37:44.945Z,3.30
2018-07-20T14:38:47.442Z,3.50
2018-07-20T14:39:48.112Z,3.20
2018-07-20T14:40:48.806Z,3.50
2018-07-20T14:41:50.291Z,3.40
2018-07-20T14:42:51.001Z,3.20
2018-07-20T14:43:51.668Z,3.20
2018-07-20T14:44:52.306Z,3.00
2018-07-20T14:45:52.989Z,3.00
2018-07-20T14:46:53.655Z,3.20
2018-07-20T14:47:54.418Z,3.40
2018-07-20T14:48:58.714Z,3.20
2018-07-20T14:50:00.246Z,3.20
2018-07-20T14:51:01.015Z,3.30
2018-07-20T14:52:01.703Z,3.30
2018-07-20T14:53:02.393Z,3.30
2018-07-20T14:54:03.096Z,3.40
2018-07-20T14:55:03.770Z,3.00
2018-07-20T14:56:04.418Z,3.50
2018-07-20T14:57:05.059Z,3.10
2018-07-20T14:58:05.704Z,3.50
2018-07-20T14:59:06.422Z,3.50
2018-07-20T15:00:08.489Z,3.10
2018-07-20T15:01:09.209Z,3.60
2018-07-20T15:02:09.924Z,3.40
2018-07-20T15:03:10.568Z,3.20
2018-07-20T15:04:11.207Z,3.50
2018-07-20T15:05:11.864Z,3.20
2018-07-20T15:06:17.571Z,3.50
2018-07-20T15:07:18.211Z,3.20
2018-07-20T15:08:18.868Z,3.50
2018-07-20T15:09:19.522Z,3.50
2018-07-20T15:10:20.214Z,3.20
2018-07-20T15:11:20.845Z,3.20
2018-07-20T15:12:21.485Z,3.30
2018-07-20T15:13:22.152Z,3.10
2018-07-20T15:14:22.828Z,3.20
